»·PEaware :: N3891R KBUR-KSBA

N3891R :: KBUR-KSBA

FLIGHT INFORMATION

Flight Status: Arrived
Operator: Privately registered:
United States
More flights under this callsign
Pilot: Markus B. (22479)
Aircraft: BEECH AIRCRAFT BARON
(BE58)
More flights by this aircraft type
Origin: KBUR Bob Hope-Burbank
United States
Destination: KSBA Santa Barbara Mun
United States
More flights between these airports :: More routes between these airports
Route: +VNY3 FIM V186 DEANO V27 KWANG
File this flight plan on PilotEdge
Remarks:
Altitude:
(Current/Filed)
8,000ft
Speed:
(Current/Filed)
170kts
Departed: 27-May-19 11:36 AM
Arrived: 27-May-19 12:09 PM
Distance/Time
Traveled:
75nm/0:32
Distance/Time
To Go:
Arrived

Flight Plot

Page will automatically refresh every two minutes.


Map Options




Map Legend


Flown Route
Filed Route
Departure Airport
Arrival Airport
Navaid (VOR, NDB)
Fix

Horizontal Profiles

Position Reports

Time Latitude Longitude Heading Altitude Ground
Speed
27-May-19 10:58 34.194114 -118.355452 347 780ft 0kts
27-May-19 10:59 34.194114 -118.355452 347 780ft 0kts
27-May-19 11:00 34.194114 -118.355452 347 780ft 0kts
27-May-19 11:01 34.194114 -118.355452 347 780ft 0kts
27-May-19 11:02 34.194114 -118.355452 347 780ft 0kts
27-May-19 11:07 34.200414 -118.358982 259 780ft 0kts
27-May-19 11:08 34.200414 -118.358982 259 780ft 0kts
27-May-19 11:09 34.200414 -118.358982 259 780ft 0kts
27-May-19 11:10 34.200414 -118.358982 259 780ft 0kts
27-May-19 11:11 34.200414 -118.358982 259 780ft 0kts
27-May-19 11:12 34.200414 -118.358982 259 780ft 0kts
27-May-19 11:13 34.200414 -118.358982 259 780ft 0kts
27-May-19 11:14 34.200414 -118.358982 259 780ft 0kts
27-May-19 11:15 34.200414 -118.358982 259 780ft 0kts
27-May-19 11:16 34.200414 -118.358982 259 780ft 0kts
27-May-19 11:17 34.200414 -118.358982 259 780ft 0kts
27-May-19 11:20 34.200216 -118.358844 258 780ft 0kts
27-May-19 11:21 34.200216 -118.358844 258 780ft 0kts
27-May-19 11:22 34.200216 -118.358844 258 780ft 0kts
27-May-19 11:23 34.200216 -118.358844 258 780ft 0kts
27-May-19 11:24 34.200216 -118.358844 258 780ft 0kts
27-May-19 11:25 34.200216 -118.358844 258 780ft 0kts
27-May-19 11:26 34.200216 -118.358844 258 780ft 0kts
27-May-19 11:27 34.200216 -118.358844 258 780ft 0kts
27-May-19 11:28 34.200216 -118.358844 258 780ft 0kts
27-May-19 11:29 34.200215 -118.358851 258 780ft 0kts
27-May-19 11:30 34.199670 -118.358754 115 780ft 7kts
27-May-19 11:31 34.201911 -118.358753 345 780ft 12kts
27-May-19 11:32 34.205496 -118.359737 347 780ft 13kts
27-May-19 11:33 34.209383 -118.360799 347 780ft 14kts
27-May-19 11:34 34.211928 -118.361382 26 780ft 0kts
27-May-19 11:35 34.209287 -118.359642 166 780ft 82kts
27-May-19 11:36 34.188212 -118.371558 235 2256ft 103kts
27-May-19 11:37 34.172119 -118.400450 236 3915ft 108kts
27-May-19 11:38 34.150721 -118.439126 236 4871ft 143kts
27-May-19 11:39 34.129699 -118.477052 236 6289ft 132kts
27-May-19 11:40 34.104717 -118.524094 255 6046ft 180kts
27-May-19 11:41 34.105396 -118.584983 274 6052ft 181kts
27-May-19 11:42 34.122965 -118.641630 300 6053ft 182kts
27-May-19 11:43 34.147400 -118.694138 299 6052ft 182kts
27-May-19 11:44 34.172318 -118.747654 299 6052ft 182kts
27-May-19 11:45 34.197115 -118.800889 299 6052ft 182kts
27-May-19 11:46 34.221972 -118.854230 299 6052ft 182kts
27-May-19 11:47 34.246924 -118.907795 299 6052ft 182kts
27-May-19 11:48 34.271926 -118.961360 299 6007ft 184kts
27-May-19 11:49 34.297200 -119.015510 299 5951ft 183kts
27-May-19 11:50 34.322336 -119.069355 299 5952ft 183kts
27-May-19 11:51 34.347677 -119.123604 299 5952ft 184kts
27-May-19 11:52 34.372939 -119.177664 300 5952ft 184kts
27-May-19 11:53 34.398292 -119.231896 300 5952ft 184kts
27-May-19 11:54 34.423570 -119.285944 300 5952ft 184kts
27-May-19 11:55 34.437440 -119.344762 281 5952ft 184kts
27-May-19 11:56 34.447765 -119.405714 282 5952ft 184kts
27-May-19 11:57 34.458143 -119.466472 282 5952ft 184kts
27-May-19 11:59 34.438187 -119.507232 193 6638ft 161kts
27-May-19 12:00 34.394910 -119.519057 193 7236ft 168kts
27-May-19 12:01 34.347371 -119.533155 216 7247ft 180kts
27-May-19 12:02 34.360903 -119.578734 320 6530ft 152kts
27-May-19 12:03 34.391698 -119.609862 320 5330ft 140kts
27-May-19 12:04 34.421334 -119.639789 321 4119ft 138kts
27-May-19 12:05 34.429264 -119.682420 274 2893ft 134kts
27-May-19 12:06 34.431185 -119.726982 269 1827ft 139kts
27-May-19 12:07 34.428801 -119.772685 266 1198ft 134kts
27-May-19 12:08 34.428312 -119.815618 269 423ft 111kts
27-May-19 12:09 34.427704 -119.845357 271 17ft 26kts

Navigation Log

Ident Type
Flight plan parsing failed, navigation log unavailable